Wetterdaten: Woche 01.02.16 - 07.02.16 (KW5)
Datum Zeit Temp. I. Temp. A. Feuchte I. Feuchte A. Luftdruck Regen Wind Richtung Sonnenschein UV Solar Taupunkt Windchill Windben
01.02.2016 00:00 23,1 C 3,2 C 45 % 96 % 1010,6 hPa 0,4 l/m 0,7 km/h (0 Bft) S-SW 0,00 h 0,0 UV-I 0 W/m 2,7 C 3,2 C 2,2 km/h (1 Bft)
01.02.2016 01:00 23,0 C 3,9 C 46 % 97 % 1011,0 hPa 0,4 l/m 0,3 km/h (0 Bft) W-SW 0,00 h 0,0 UV-I 0 W/m 3,5 C 3,9 C 1,6 km/h (1 Bft)
01.02.2016 02:00 22,9 C 5,8 C 46 % 98 % 1011,4 hPa 0,2 l/m 0,4 km/h (0 Bft) W-SW 0,00 h 0,0 UV-I 0 W/m 5,5 C 5,8 C 1,7 km/h (1 Bft)
01.02.2016 03:00 22,8 C 8,2 C 46 % 97 % 1011,8 hPa 0,0 l/m 10,2 km/h (2 Bft) W 0,00 h 0,0 UV-I 0 W/m 7,8 C 5,3 C 18,6 km/h (3 Bft)
01.02.2016 04:00 22,9 C 9,1 C 47 % 95 % 1012,6 hPa 0,0 l/m 9,6 km/h (2 Bft) W 0,00 h 0,0 UV-I 0 W/m 8,4 C 6,8 C 16,8 km/h (3 Bft)
01.02.2016 05:00 23,1 C 9,1 C 47 % 96 % 1013,3 hPa 0,2 l/m 4,4 km/h (1 Bft) W 0,00 h 0,0 UV-I 0 W/m 8,5 C 8,5 C 7,9 km/h (2 Bft)
01.02.2016 06:00 23,2 C 9,4 C 48 % 96 % 1013,8 hPa 0,0 l/m 9,6 km/h (2 Bft) W-SW 0,00 h 0,0 UV-I 0 W/m 8,9 C 7,1 C 16,3 km/h (3 Bft)
01.02.2016 07:00 23,3 C 9,7 C 48 % 96 % 1014,8 hPa 0,0 l/m 12,9 km/h (3 Bft) W 0,00 h 0,0 UV-I 0 W/m 9,1 C 5,9 C 20,0 km/h (4 Bft)
01.02.2016 08:00 23,7 C 9,7 C 49 % 96 % 1016,3 hPa 0,2 l/m 13,9 km/h (3 Bft) W-SW 0,00 h 0,0 UV-I 13 W/m 9,1 C 5,4 C 22,2 km/h (4 Bft)
01.02.2016 09:00 23,7 C 9,6 C 48 % 96 % 1017,5 hPa 0,2 l/m 13,1 km/h (3 Bft) W 0,00 h 0,0 UV-I 20 W/m 8,9 C 5,7 C 21,2 km/h (4 Bft)
01.02.2016 10:00 23,7 C 9,4 C 49 % 96 % 1018,0 hPa 0,0 l/m 11,9 km/h (2 Bft) W-SW 0,00 h 0,0 UV-I 38 W/m 8,8 C 6,0 C 19,3 km/h (3 Bft)
01.02.2016 11:00 23,7 C 9,5 C 49 % 96 % 1018,7 hPa 0,2 l/m 14,9 km/h (3 Bft) W-SW 0,00 h 0,5 UV-I 54 W/m 8,8 C 4,8 C 23,7 km/h (4 Bft)
01.02.2016 12:00 23,6 C 9,7 C 48 % 95 % 1019,0 hPa 0,2 l/m 16,0 km/h (3 Bft) W-SW 0,00 h 0,6 UV-I 66 W/m 8,9 C 4,6 C 25,5 km/h (4 Bft)
01.02.2016 13:00 23,6 C 9,7 C 48 % 95 % 1018,9 hPa 0,2 l/m 16,9 km/h (3 Bft) W-SW 0,00 h 0,5 UV-I 61 W/m 9,1 C 4,2 C 26,3 km/h (4 Bft)
01.02.2016 14:00 23,6 C 9,8 C 48 % 95 % 1018,8 hPa 0,2 l/m 16,4 km/h (3 Bft) W-SW 0,00 h 0,0 UV-I 22 W/m 9,1 C 4,5 C 25,3 km/h (4 Bft)
01.02.2016 15:00 23,6 C 9,9 C 49 % 92 % 1018,6 hPa 0,0 l/m 22,6 km/h (4 Bft) W-SW 0,00 h 0,0 UV-I 17 W/m 8,7 C 2,5 C 36,6 km/h (5 Bft)
01.02.2016 16:00 23,6 C 9,9 C 48 % 85 % 1019,3 hPa 0,0 l/m 27,0 km/h (4 Bft) W-SW 0,00 h 0,0 UV-I 9 W/m 7,5 C 1,3 C 41,8 km/h (6 Bft)
01.02.2016 17:00 23,7 C 9,7 C 48 % 85 % 1019,6 hPa 0,0 l/m 14,0 km/h (3 Bft) W-SW 0,00 h 0,0 UV-I 0 W/m 7,2 C 5,5 C 22,4 km/h (4 Bft)
01.02.2016 18:00 23,7 C 9,6 C 49 % 83 % 1019,5 hPa 0,0 l/m 22,7 km/h (4 Bft) W-SW 0,00 h 0,0 UV-I 0 W/m 6,9 C 2,1 C 36,7 km/h (5 Bft)
01.02.2016 19:00 23,9 C 9,3 C 50 % 81 % 1020,0 hPa 0,0 l/m 23,0 km/h (4 Bft) W-SW 0,00 h 0,0 UV-I 0 W/m 6,3 C 1,6 C 35,0 km/h (5 Bft)
01.02.2016 20:00 23,8 C 9,0 C 49 % 81 % 1020,4 hPa 0,0 l/m 15,0 km/h (3 Bft) W-SW 0,00 h 0,0 UV-I 0 W/m 5,9 C 4,1 C 24,3 km/h (4 Bft)
01.02.2016 21:00 23,8 C 8,8 C 49 % 81 % 1020,5 hPa 0,0 l/m 11,9 km/h (2 Bft) W 0,00 h 0,0 UV-I 0 W/m 5,7 C 5,4 C 20,0 km/h (4 Bft)
01.02.2016 22:00 23,7 C 8,6 C 48 % 81 % 1020,3 hPa 0,0 l/m 13,4 km/h (3 Bft) W-SW 0,00 h 0,0 UV-I 0 W/m 5,6 C 4,5 C 23,2 km/h (4 Bft)
01.02.2016 23:00 23,4 C 8,6 C 48 % 81 % 1020,3 hPa 0,0 l/m 19,2 km/h (3 Bft) W-SW 0,00 h 0,0 UV-I 0 W/m 5,4 C 1,8 C 30,8 km/h (5 Bft)
02.02.2016 00:00 23,2 C 8,4 C 48 % 81 % 1020,6 hPa 0,0 l/m 12,7 km/h (3 Bft) W-SW 0,00 h 0,0 UV-I 0 W/m 5,4 C 4,5 C 21,7 km/h (4 Bft)
02.02.2016 01:00 23,1 C 8,5 C 49 % 82 % 1020,5 hPa 0,0 l/m 12,7 km/h (3 Bft) W-SW 0,00 h 0,0 UV-I 0 W/m 5,6 C 4,6 C 20,6 km/h (4 Bft)
02.02.2016 02:00 23,1 C 8,2 C 49 % 86 % 1020,3 hPa 0,0 l/m 12,1 km/h (2 Bft) W-SW 0,00 h 0,0 UV-I 0 W/m 6,0 C 4,7 C 20,0 km/h (4 Bft)
02.02.2016 03:00 22,9 C 7,9 C 49 % 89 % 1019,8 hPa 0,0 l/m 11,0 km/h (2 Bft) W-SW 0,00 h 0,0 UV-I 0 W/m 6,2 C 4,8 C 18,3 km/h (3 Bft)
02.02.2016 04:00 22,9 C 8,0 C 49 % 88 % 1019,4 hPa 0,0 l/m 9,6 km/h (2 Bft) SW 0,00 h 0,0 UV-I 0 W/m 6,2 C 5,6 C 16,9 km/h (3 Bft)
02.02.2016 05:00 23,0 C 8,2 C 50 % 87 % 1019,1 hPa 0,0 l/m 6,1 km/h (2 Bft) SW 0,00 h 0,0 UV-I 0 W/m 6,2 C 7,1 C 11,6 km/h (2 Bft)
02.02.2016 06:00 23,2 C 8,4 C 50 % 86 % 1019,0 hPa 0,0 l/m 2,8 km/h (1 Bft) SW 0,00 h 0,0 UV-I 0 W/m 6,2 C 8,2 C 7,3 km/h (2 Bft)
02.02.2016 07:00 23,2 C 8,6 C 50 % 85 % 1018,9 hPa 0,0 l/m 1,9 km/h (1 Bft) SW 0,00 h 0,0 UV-I 0 W/m 6,2 C 8,6 C 5,8 km/h (2 Bft)
02.02.2016 08:00 23,3 C 8,4 C 49 % 87 % 1019,1 hPa 0,0 l/m 3,7 km/h (1 Bft) SW 0,00 h 0,0 UV-I 8 W/m 6,3 C 8,3 C 9,3 km/h (2 Bft)
02.02.2016 09:00 23,5 C 8,3 C 48 % 89 % 1018,9 hPa 0,0 l/m 8,0 km/h (2 Bft) S 0,00 h 0,0 UV-I 20 W/m 6,5 C 6,4 C 13,0 km/h (3 Bft)
02.02.2016 10:00 23,7 C 8,0 C 48 % 92 % 1018,3 hPa 0,0 l/m 10,7 km/h (2 Bft) SW 0,00 h 0,5 UV-I 56 W/m 6,8 C 5,2 C 17,8 km/h (3 Bft)
02.02.2016 11:00 23,7 C 8,5 C 49 % 89 % 1017,7 hPa 0,0 l/m 11,5 km/h (2 Bft) W-SW 0,00 h 0,6 UV-I 59 W/m 6,7 C 5,2 C 18,3 km/h (3 Bft)
02.02.2016 12:00 23,6 C 9,1 C 49 % 85 % 1016,8 hPa 0,0 l/m 10,5 km/h (2 Bft) W-SW 0,00 h 0,6 UV-I 56 W/m 6,7 C 6,4 C 17,1 km/h (3 Bft)
02.02.2016 13:00 23,6 C 9,4 C 49 % 83 % 1015,6 hPa 0,0 l/m 12,2 km/h (2 Bft) W-SW 0,00 h 0,5 UV-I 51 W/m 6,7 C 5,8 C 20,2 km/h (4 Bft)
02.02.2016 14:00 23,7 C 9,4 C 50 % 83 % 1014,7 hPa 0,0 l/m 10,6 km/h (2 Bft) SW 0,00 h 0,0 UV-I 28 W/m 6,7 C 6,7 C 18,2 km/h (3 Bft)
02.02.2016 15:00 23,8 C 9,2 C 50 % 84 % 1014,4 hPa 0,0 l/m 7,5 km/h (2 Bft) SW 0,00 h 0,0 UV-I 10 W/m 6,6 C 7,7 C 12,7 km/h (3 Bft)
02.02.2016 16:00 23,8 C 9,0 C 50 % 85 % 1013,9 hPa 0,0 l/m 4,0 km/h (1 Bft) S 0,00 h 0,0 UV-I 5 W/m 6,7 C 8,4 C 8,1 km/h (2 Bft)
02.02.2016 17:00 23,9 C 8,8 C 51 % 87 % 1013,3 hPa 0,0 l/m 10,1 km/h (2 Bft) SW 0,00 h 0,0 UV-I 0 W/m 6,8 C 6,1 C 17,4 km/h (3 Bft)
02.02.2016 18:00 23,9 C 9,0 C 51 % 84 % 1012,8 hPa 0,0 l/m 13,2 km/h (3 Bft) SW 0,00 h 0,0 UV-I 0 W/m 6,5 C 5,0 C 22,1 km/h (4 Bft)
02.02.2016 19:00 24,1 C 9,2 C 51 % 81 % 1012,8 hPa 0,0 l/m 17,1 km/h (3 Bft) W-SW 0,00 h 0,0 UV-I 0 W/m 6,2 C 3,5 C 28,6 km/h (4 Bft)
02.02.2016 20:00 23,9 C 8,8 C 50 % 83 % 1012,9 hPa 0,0 l/m 14,4 km/h (3 Bft) SW 0,00 h 0,0 UV-I 0 W/m 6,2 C 4,2 C 24,2 km/h (4 Bft)
02.02.2016 21:00 24,0 C 8,8 C 50 % 83 % 1013,0 hPa 0,0 l/m 14,8 km/h (3 Bft) W-SW 0,00 h 0,0 UV-I 0 W/m 6,0 C 4,0 C 25,0 km/h (4 Bft)
02.02.2016 22:00 23,9 C 8,4 C 50 % 83 % 1013,8 hPa 0,0 l/m 15,8 km/h (3 Bft) NW 0,00 h 0,0 UV-I 0 W/m 5,6 C 3,0 C 24,9 km/h (4 Bft)
02.02.2016 23:00 23,8 C 6,5 C 50 % 85 % 1014,5 hPa 0,0 l/m 9,6 km/h (2 Bft) W-NW 0,00 h 0,0 UV-I 0 W/m 4,1 C 3,8 C 14,9 km/h (3 Bft)
03.02.2016 00:00 23,5 C 5,3 C 51 % 86 % 1015,2 hPa 0,0 l/m 9,6 km/h (2 Bft) W 0,00 h 0,0 UV-I 0 W/m 3,2 C 2,7 C 16,1 km/h (3 Bft)
03.02.2016 01:00 23,4 C 4,4 C 51 % 90 % 1015,2 hPa 0,2 l/m 8,3 km/h (2 Bft) W-SW 0,00 h 0,0 UV-I 0 W/m 3,0 C 2,2 C 14,7 km/h (3 Bft)
03.02.2016 02:00 23,3 C 4,1 C 51 % 90 % 1015,7 hPa 0,0 l/m 6,7 km/h (2 Bft) W 0,00 h 0,0 UV-I 0 W/m 2,6 C 2,8 C 12,4 km/h (3 Bft)
03.02.2016 03:00 23,2 C 4,1 C 51 % 89 % 1015,7 hPa 0,0 l/m 3,2 km/h (1 Bft) W-SW 0,00 h 0,0 UV-I 0 W/m 2,4 C 3,7 C 7,7 km/h (2 Bft)
03.02.2016 04:00 23,1 C 3,9 C 51 % 87 % 1015,7 hPa 0,0 l/m 8,4 km/h (2 Bft) W 0,00 h 0,0 UV-I 0 W/m 1,9 C 2,0 C 14,2 km/h (3 Bft)
03.02.2016 05:00 23,2 C 3,5 C 52 % 87 % 1015,5 hPa 0,0 l/m 6,7 km/h (2 Bft) W-SW 0,00 h 0,0 UV-I 0 W/m 1,6 C 2,5 C 11,5 km/h (2 Bft)
03.02.2016 06:00 23,3 C 3,2 C 52 % 87 % 1015,3 hPa 0,0 l/m 9,1 km/h (2 Bft) W-SW 0,00 h 0,0 UV-I 0 W/m 1,2 C 0,8 C 14,8 km/h (3 Bft)
03.02.2016 07:00 23,3 C 3,0 C 52 % 88 % 1015,4 hPa 0,0 l/m 4,2 km/h (1 Bft) W-SW 0,00 h 0,0 UV-I 0 W/m 1,3 C 2,1 C 7,9 km/h (2 Bft)
03.02.2016 08:00 23,4 C 3,0 C 52 % 89 % 1015,3 hPa 0,0 l/m 1,2 km/h (1 Bft) W-SW 0,00 h 0,0 UV-I 17 W/m 1,4 C 3,0 C 4,5 km/h (1 Bft)
03.02.2016 09:00 23,6 C 3,3 C 50 % 89 % 1015,2 hPa 0,0 l/m 0,7 km/h (0 Bft) SW 0,00 h 0,0 UV-I 30 W/m 1,6 C 3,3 C 3,1 km/h (1 Bft)
03.02.2016 10:00 23,6 C 3,5 C 48 % 89 % 1015,5 hPa 0,0 l/m 2,1 km/h (1 Bft) W-SW 0,00 h 0,5 UV-I 46 W/m 1,8 C 3,5 C 6,6 km/h (2 Bft)
03.02.2016 11:00 23,7 C 3,8 C 47 % 86 % 1015,7 hPa 0,0 l/m 4,0 km/h (1 Bft) W-SW 0,00 h 0,6 UV-I 62 W/m 1,6 C 3,6 C 9,6 km/h (2 Bft)
03.02.2016 12:00 23,9 C 4,2 C 47 % 83 % 1015,4 hPa 0,0 l/m 7,0 km/h (2 Bft) W-SW 0,50 h 0,9 UV-I 146 W/m 1,6 C 2,6 C 13,6 km/h (3 Bft)
03.02.2016 13:00 23,8 C 4,4 C 47 % 79 % 1015,3 hPa 0,0 l/m 11,9 km/h (2 Bft) W-SW 0,15 h 0,8 UV-I 119 W/m 1,0 C 0,3 C 18,1 km/h (3 Bft)
03.02.2016 14:00 23,7 C 4,2 C 47 % 81 % 1015,3 hPa 0,0 l/m 8,1 km/h (2 Bft) W-SW 0,13 h 0,7 UV-I 102 W/m 1,2 C 2,4 C 14,2 km/h (3 Bft)
03.02.2016 15:00 23,7 C 4,0 C 48 % 82 % 1015,4 hPa 0,0 l/m 5,0 km/h (1 Bft) SW 0,00 h 0,0 UV-I 39 W/m 1,2 C 3,4 C 10,0 km/h (2 Bft)
03.02.2016 16:00 23,6 C 3,0 C 46 % 89 % 1015,8 hPa 0,4 l/m 2,5 km/h (1 Bft) W 0,00 h 0,0 UV-I 20 W/m 1,3 C 2,3 C 4,2 km/h (1 Bft)
03.02.2016 17:00 23,8 C 2,2 C 48 % 92 % 1016,1 hPa 0,0 l/m 0,0 km/h (0 Bft) N 0,00 h 0,0 UV-I 0 W/m 1,0 C 2,2 C 0,2 km/h (0 Bft)
03.02.2016 18:00 23,9 C 2,1 C 48 % 93 % 1016,7 hPa 1,0 l/m 0,6 km/h (0 Bft) W-NW 0,00 h 0,0 UV-I 0 W/m 1,0 C 2,1 C 2,0 km/h (1 Bft)
03.02.2016 19:00 24,1 C 1,2 C 50 % 94 % 1018,2 hPa 0,4 l/m 0,9 km/h (0 Bft) W 0,00 h 0,0 UV-I 0 W/m 0,4 C 1,2 C 3,0 km/h (1 Bft)
03.02.2016 20:00 23,9 C 0,8 C 48 % 92 % 1019,9 hPa 0,0 l/m 1,8 km/h (1 Bft) W 0,00 h 0,0 UV-I 0 W/m -0,3 C 0,8 C 5,6 km/h (1 Bft)
03.02.2016 21:00 23,9 C 0,4 C 47 % 92 % 1021,0 hPa 0,0 l/m 2,0 km/h (1 Bft) W-SW 0,00 h 0,0 UV-I 0 W/m -0,8 C 0,3 C 5,5 km/h (1 Bft)
03.02.2016 22:00 23,7 C 0,6 C 46 % 93 % 1021,8 hPa 0,0 l/m 6,5 km/h (2 Bft) W 0,00 h 0,0 UV-I 0 W/m -0,5 C -0,8 C 12,5 km/h (3 Bft)
03.02.2016 23:00 23,4 C 0,7 C 47 % 92 % 1022,1 hPa 0,0 l/m 8,4 km/h (2 Bft) W 0,00 h 0,0 UV-I 0 W/m -0,4 C -1,4 C 14,1 km/h (3 Bft)
04.02.2016 00:00 23,3 C 0,6 C 47 % 93 % 1022,4 hPa 0,0 l/m 8,4 km/h (2 Bft) W-SW 0,00 h 0,0 UV-I 0 W/m -0,5 C -1,4 C 14,2 km/h (3 Bft)
04.02.2016 01:00 23,2 C 0,7 C 48 % 91 % 1022,6 hPa 0,0 l/m 6,6 km/h (2 Bft) W-SW 0,00 h 0,0 UV-I 0 W/m -0,6 C -0,5 C 11,6 km/h (2 Bft)
04.02.2016 02:00 23,2 C 0,7 C 49 % 91 % 1023,0 hPa 0,0 l/m 8,0 km/h (2 Bft) W-SW 0,00 h 0,0 UV-I 0 W/m -0,6 C -1,4 C 13,3 km/h (3 Bft)
04.02.2016 03:00 23,1 C 0,6 C 49 % 92 % 1023,3 hPa 0,0 l/m 8,9 km/h (2 Bft) W-SW 0,00 h 0,0 UV-I 0 W/m -0,5 C -1,8 C 14,3 km/h (3 Bft)
04.02.2016 04:00 23,2 C 0,6 C 50 % 92 % 1023,3 hPa 0,0 l/m 7,4 km/h (2 Bft) W 0,00 h 0,0 UV-I 0 W/m -0,6 C -1,3 C 13,2 km/h (3 Bft)
04.02.2016 05:00 23,3 C 0,7 C 50 % 90 % 1023,7 hPa 0,0 l/m 5,7 km/h (1 Bft) W-SW 0,00 h 0,0 UV-I 0 W/m -0,6 C 0,0 C 9,9 km/h (2 Bft)
04.02.2016 06:00 23,3 C 0,6 C 50 % 92 % 1023,5 hPa 0,0 l/m 7,4 km/h (2 Bft) W-SW 0,00 h 0,0 UV-I 0 W/m -0,6 C -1,6 C 12,9 km/h (3 Bft)
04.02.2016 07:00 23,3 C 0,6 C 50 % 94 % 1023,5 hPa 0,0 l/m 7,4 km/h (2 Bft) W-SW 0,00 h 0,0 UV-I 7 W/m -0,3 C -1,3 C 12,8 km/h (3 Bft)
04.02.2016 08:00 23,5 C 0,7 C 49 % 94 % 1023,6 hPa 0,0 l/m 9,4 km/h (2 Bft) W-SW 0,00 h 0,0 UV-I 30 W/m -0,1 C -2,2 C 15,7 km/h (3 Bft)
04.02.2016 09:00 23,4 C 0,9 C 45 % 94 % 1023,9 hPa 0,0 l/m 10,3 km/h (2 Bft) W-SW 0,00 h 0,0 UV-I 46 W/m -0,0 C -2,8 C 16,4 km/h (3 Bft)
04.02.2016 10:00 23,5 C 0,9 C 45 % 94 % 1024,0 hPa 0,0 l/m 11,4 km/h (2 Bft) W-SW 0,00 h 0,5 UV-I 51 W/m 0,1 C -3,3 C 17,9 km/h (3 Bft)
04.02.2016 11:00 23,7 C 1,2 C 45 % 92 % 1023,8 hPa 0,0 l/m 11,7 km/h (2 Bft) W-SW 0,00 h 0,6 UV-I 52 W/m 0,0 C -3,3 C 18,3 km/h (3 Bft)
04.02.2016 12:00 23,7 C 1,5 C 45 % 88 % 1023,2 hPa 0,0 l/m 11,1 km/h (2 Bft) W-SW 0,00 h 0,6 UV-I 74 W/m -0,2 C -2,5 C 18,0 km/h (3 Bft)
04.02.2016 13:00 23,7 C 1,7 C 45 % 88 % 1022,4 hPa 0,0 l/m 12,7 km/h (3 Bft) W-SW 0,00 h 0,7 UV-I 112 W/m -0,1 C -3,2 C 19,1 km/h (3 Bft)
04.02.2016 14:00 23,6 C 1,2 C 46 % 92 % 1021,6 hPa 0,0 l/m 10,5 km/h (2 Bft) W-SW 0,00 h 0,5 UV-I 67 W/m 0,1 C -2,3 C 16,8 km/h (3 Bft)
04.02.2016 15:00 23,6 C 1,0 C 46 % 93 % 1021,2 hPa 0,4 l/m 4,8 km/h (1 Bft) W-SW 0,00 h 0,0 UV-I 34 W/m 0,0 C -0,3 C 8,7 km/h (2 Bft)
04.02.2016 16:00 23,7 C 0,8 C 46 % 95 % 1020,2 hPa 1,0 l/m 0,2 km/h (0 Bft) SW 0,00 h 0,0 UV-I 8 W/m 0,0 C 0,8 C 1,1 km/h (1 Bft)
04.02.2016 17:00 23,8 C 0,6 C 47 % 96 % 1019,2 hPa 0,6 l/m 0,1 km/h (0 Bft) S-SW 0,00 h 0,0 UV-I 0 W/m 0,0 C 0,6 C 0,2 km/h (0 Bft)
04.02.2016 18:00 23,8 C 0,6 C 46 % 96 % 1018,7 hPa 0,4 l/m 0,0 km/h (0 Bft) N 0,00 h 0,0 UV-I 0 W/m 0,0 C 0,6 C 0,0 km/h (0 Bft)
04.02.2016 19:00 23,8 C 0,6 C 45 % 96 % 1018,8 hPa 0,4 l/m 0,0 km/h (0 Bft) N 0,00 h 0,0 UV-I 0 W/m 0,0 C 0,6 C 0,0 km/h (0 Bft)
04.02.2016 20:00 23,6 C 0,6 C 45 % 96 % 1019,4 hPa 0,0 l/m 0,0 km/h (0 Bft) N 0,00 h 0,0 UV-I 0 W/m 0,0 C 0,6 C 0,0 km/h (0 Bft)
04.02.2016 21:00 23,6 C 0,6 C 45 % 96 % 1020,5 hPa 0,0 l/m 0,0 km/h (0 Bft) N 0,00 h 0,0 UV-I 0 W/m 0,0 C 0,6 C 0,0 km/h (0 Bft)
04.02.2016 22:00 23,5 C 0,6 C 45 % 96 % 1021,4 hPa 0,0 l/m 0,0 km/h (0 Bft) N 0,00 h 0,0 UV-I 0 W/m 0,0 C 0,6 C 0,0 km/h (0 Bft)
04.02.2016 23:00 23,2 C 0,6 C 45 % 96 % 1022,6 hPa 0,0 l/m 0,0 km/h (0 Bft) N 0,00 h 0,0 UV-I 0 W/m 0,0 C 0,6 C 0,0 km/h (0 Bft)
05.02.2016 00:00 23,0 C 0,7 C 46 % 96 % 1023,6 hPa 0,0 l/m 0,0 km/h (0 Bft) N 0,00 h 0,0 UV-I 0 W/m 0,1 C 0,7 C 0,0 km/h (0 Bft)
05.02.2016 01:00 22,9 C 0,7 C 46 % 96 % 1024,4 hPa 0,0 l/m 0,0 km/h (0 Bft) N 0,00 h 0,0 UV-I 0 W/m 0,1 C 0,7 C 0,0 km/h (0 Bft)
05.02.2016 02:00 22,9 C 0,6 C 46 % 95 % 1025,2 hPa 0,0 l/m 0,0 km/h (0 Bft) N 0,00 h 0,0 UV-I 0 W/m -0,1 C 0,6 C 0,0 km/h (0 Bft)
05.02.2016 03:00 22,8 C 0,5 C 47 % 95 % 1025,7 hPa 0,0 l/m 0,0 km/h (0 Bft) N 0,00 h 0,0 UV-I 0 W/m -0,2 C 0,5 C 0,0 km/h (0 Bft)
05.02.2016 04:00 23,0 C 0,4 C 48 % 94 % 1026,5 hPa 0,0 l/m 0,0 km/h (0 Bft) N 0,00 h 0,0 UV-I 0 W/m -0,4 C 0,4 C 0,1 km/h (0 Bft)
05.02.2016 05:00 23,1 C 0,3 C 48 % 94 % 1027,0 hPa 0,0 l/m 0,0 km/h (0 Bft) N 0,00 h 0,0 UV-I 0 W/m -0,5 C 0,3 C 0,0 km/h (0 Bft)
05.02.2016 06:00 23,1 C 0,2 C 48 % 95 % 1027,6 hPa 0,0 l/m 0,0 km/h (0 Bft) N 0,00 h 0,0 UV-I 0 W/m -0,5 C 0,2 C 0,0 km/h (0 Bft)
05.02.2016 07:00 23,1 C 0,2 C 49 % 95 % 1028,2 hPa 0,0 l/m 0,0 km/h (0 Bft) N 0,00 h 0,0 UV-I 8 W/m -0,5 C 0,2 C 0,0 km/h (0 Bft)
05.02.2016 08:00 23,3 C 0,3 C 49 % 95 % 1028,8 hPa 0,0 l/m 0,0 km/h (0 Bft) N 0,00 h 0,0 UV-I 42 W/m -0,4 C 0,3 C 0,0 km/h (0 Bft)
05.02.2016 09:00 23,6 C 0,6 C 47 % 95 % 1029,1 hPa 0,0 l/m 0,5 km/h (0 Bft) W-SW 0,00 h 0,5 UV-I 70 W/m -0,2 C 0,6 C 1,9 km/h (1 Bft)
05.02.2016 10:00 23,1 C 0,9 C 42 % 94 % 1029,2 hPa 0,0 l/m 0,9 km/h (0 Bft) SW 0,08 h 0,7 UV-I 120 W/m -0,1 C 0,9 C 2,8 km/h (1 Bft)
05.02.2016 11:00 23,4 C 1,2 C 43 % 92 % 1029,0 hPa 0,0 l/m 0,9 km/h (0 Bft) SW 0,07 h 0,7 UV-I 107 W/m 0,0 C 1,2 C 3,4 km/h (1 Bft)
05.02.2016 12:00 23,7 C 1,4 C 44 % 91 % 1028,4 hPa 0,0 l/m 2,2 km/h (1 Bft) S 0,13 h 0,9 UV-I 129 W/m 0,1 C 1,4 C 5,4 km/h (1 Bft)
05.02.2016 13:00 23,6 C 1,7 C 44 % 92 % 1027,7 hPa 0,0 l/m 1,2 km/h (1 Bft) S 0,00 h 0,7 UV-I 93 W/m 0,6 C 1,6 C 3,3 km/h (1 Bft)
05.02.2016 14:00 23,6 C 1,8 C 45 % 94 % 1026,9 hPa 0,0 l/m 1,2 km/h (1 Bft) S 0,00 h 0,5 UV-I 49 W/m 0,9 C 1,8 C 3,1 km/h (1 Bft)
05.02.2016 15:00 23,6 C 2,1 C 45 % 95 % 1026,7 hPa 0,0 l/m 1,3 km/h (1 Bft) S 0,00 h 0,0 UV-I 22 W/m 1,4 C 2,1 C 3,7 km/h (1 Bft)
05.02.2016 16:00 23,8 C 2,2 C 45 % 95 % 1026,6 hPa 0,0 l/m 1,4 km/h (1 Bft) S 0,00 h 0,0 UV-I 8 W/m 1,5 C 2,2 C 3,9 km/h (1 Bft)
05.02.2016 17:00 23,9 C 2,5 C 46 % 96 % 1026,7 hPa 0,0 l/m 2,5 km/h (1 Bft) S 0,00 h 0,0 UV-I 0 W/m 1,9 C 2,5 C 5,0 km/h (1 Bft)
05.02.2016 18:00 23,8 C 2,7 C 45 % 96 % 1026,8 hPa 0,4 l/m 2,2 km/h (1 Bft) S 0,00 h 0,0 UV-I 0 W/m 2,2 C 2,7 C 5,0 km/h (1 Bft)
05.02.2016 19:00 24,0 C 3,0 C 46 % 97 % 1026,6 hPa 0,0 l/m 2,1 km/h (1 Bft) S 0,00 h 0,0 UV-I 0 W/m 2,5 C 2,9 C 5,3 km/h (1 Bft)
05.02.2016 20:00 23,7 C 3,2 C 45 % 97 % 1026,5 hPa 0,0 l/m 1,1 km/h (1 Bft) S-SW 0,00 h 0,0 UV-I 0 W/m 2,8 C 3,2 C 2,8 km/h (1 Bft)
05.02.2016 21:00 23,9 C 3,6 C 48 % 97 % 1026,1 hPa 0,0 l/m 0,6 km/h (0 Bft) SW 0,00 h 0,0 UV-I 0 W/m 3,2 C 3,7 C 1,6 km/h (1 Bft)
05.02.2016 22:00 23,7 C 3,7 C 47 % 97 % 1025,6 hPa 0,0 l/m 0,2 km/h (0 Bft) S 0,00 h 0,0 UV-I 0 W/m 3,3 C 3,7 C 0,7 km/h (0 Bft)
05.02.2016 23:00 23,4 C 3,7 C 46 % 97 % 1025,1 hPa 0,0 l/m 0,0 km/h (0 Bft) N 0,00 h 0,0 UV-I 0 W/m 3,3 C 3,7 C 0,0 km/h (0 Bft)
06.02.2016 00:00 23,3 C 3,7 C 47 % 97 % 1024,8 hPa 0,0 l/m 0,2 km/h (0 Bft) S-SO 0,00 h 0,0 UV-I 0 W/m 3,2 C 3,7 C 0,5 km/h (0 Bft)
06.02.2016 01:00 23,2 C 3,7 C 47 % 97 % 1024,6 hPa 0,0 l/m 4,8 km/h (1 Bft) S-SO 0,00 h 0,0 UV-I 0 W/m 3,3 C 3,3 C 8,8 km/h (2 Bft)
06.02.2016 02:00 23,1 C 3,8 C 48 % 96 % 1024,2 hPa 0,0 l/m 3,3 km/h (1 Bft) S 0,00 h 0,0 UV-I 0 W/m 3,2 C 3,6 C 6,4 km/h (2 Bft)
06.02.2016 03:00 23,1 C 3,4 C 48 % 96 % 1023,5 hPa 0,0 l/m 5,0 km/h (1 Bft) S 0,00 h 0,0 UV-I 0 W/m 2,9 C 3,1 C 8,8 km/h (2 Bft)
06.02.2016 04:00 23,2 C 2,9 C 49 % 96 % 1023,2 hPa 0,0 l/m 4,1 km/h (1 Bft) S 0,00 h 0,0 UV-I 0 W/m 2,3 C 2,7 C 8,3 km/h (2 Bft)
06.02.2016 05:00 23,3 C 2,3 C 49 % 96 % 1022,7 hPa 0,0 l/m 1,4 km/h (1 Bft) S 0,00 h 0,0 UV-I 0 W/m 1,7 C 2,2 C 3,1 km/h (1 Bft)
06.02.2016 06:00 23,3 C 1,7 C 50 % 95 % 1022,0 hPa 0,0 l/m 0,0 km/h (0 Bft) N 0,00 h 0,0 UV-I 0 W/m 1,1 C 1,7 C 0,0 km/h (0 Bft)
06.02.2016 07:00 23,3 C 1,1 C 50 % 95 % 1021,8 hPa 0,0 l/m 0,0 km/h (0 Bft) N 0,00 h 0,0 UV-I 11 W/m 0,4 C 1,1 C 0,1 km/h (0 Bft)
06.02.2016 08:00 23,5 C 0,9 C 48 % 96 % 1021,7 hPa 0,0 l/m 0,0 km/h (0 Bft) N 0,00 h 0,0 UV-I 63 W/m 0,3 C 0,9 C 0,0 km/h (0 Bft)
06.02.2016 09:00 23,5 C 2,9 C 46 % 96 % 1021,4 hPa 0,0 l/m 0,0 km/h (0 Bft) W-SW 0,67 h 0,6 UV-I 157 W/m 2,3 C 2,9 C 0,2 km/h (0 Bft)
06.02.2016 10:00 23,4 C 4,9 C 43 % 91 % 1021,3 hPa 0,0 l/m 5,4 km/h (1 Bft) S 1,00 h 0,7 UV-I 197 W/m 3,6 C 4,4 C 9,6 km/h (2 Bft)
06.02.2016 11:00 23,3 C 5,7 C 42 % 91 % 1020,8 hPa 0,0 l/m 7,8 km/h (2 Bft) S 1,00 h 0,7 UV-I 188 W/m 4,3 C 4,4 C 13,2 km/h (3 Bft)
06.02.2016 12:00 23,2 C 6,7 C 42 % 84 % 1019,5 hPa 0,0 l/m 7,0 km/h (2 Bft) S 1,00 h 1,2 UV-I 252 W/m 4,3 C 5,6 C 12,9 km/h (3 Bft)
06.02.2016 13:00 23,1 C 7,5 C 41 % 84 % 1018,5 hPa 0,0 l/m 5,0 km/h (1 Bft) S 1,00 h 1,2 UV-I 250 W/m 5,0 C 7,1 C 9,9 km/h (2 Bft)
06.02.2016 14:00 23,2 C 8,1 C 41 % 84 % 1018,0 hPa 0,0 l/m 2,7 km/h (1 Bft) SW 1,00 h 1,2 UV-I 250 W/m 5,5 C 8,0 C 6,7 km/h (2 Bft)
06.02.2016 15:00 22,5 C 8,1 C 39 % 84 % 1017,0 hPa 0,0 l/m 1,6 km/h (1 Bft) S 1,00 h 1,2 UV-I 250 W/m 5,6 C 8,1 C 4,0 km/h (1 Bft)
06.02.2016 16:00 22,6 C 7,8 C 40 % 84 % 1016,0 hPa 0,0 l/m 2,4 km/h (1 Bft) S-SO 1,00 h 1,2 UV-I 250 W/m 5,3 C 7,7 C 5,0 km/h (1 Bft)
06.02.2016 17:00 22,8 C 7,0 C 42 % 82 % 1015,6 hPa 0,0 l/m 0,1 km/h (0 Bft) O 0,03 h 1,2 UV-I 250 W/m 4,1 C 7,0 C 0,5 km/h (0 Bft)
06.02.2016 18:00 23,1 C 5,5 C 43 % 84 % 1015,2 hPa 0,0 l/m 0,2 km/h (0 Bft) S-SO 0,00 h 0,0 UV-I 0 W/m 3,1 C 5,5 C 0,7 km/h (0 Bft)
06.02.2016 19:00 23,1 C 3,8 C 43 % 86 % 1014,7 hPa 0,0 l/m 0,0 km/h (0 Bft) N 0,00 h 0,0 UV-I 0 W/m 1,7 C 3,8 C 0,0 km/h (0 Bft)
06.02.2016 20:00 22,9 C 2,1 C 43 % 89 % 1014,1 hPa 0,0 l/m 0,0 km/h (0 Bft) N 0,00 h 0,0 UV-I 0 W/m 0,4 C 2,1 C 0,0 km/h (0 Bft)
06.02.2016 21:00 23,1 C 1,0 C 44 % 91 % 1013,2 hPa 0,0 l/m 0,0 km/h (0 Bft) N 0,00 h 0,0 UV-I 0 W/m -0,3 C 1,0 C 0,0 km/h (0 Bft)
06.02.2016 22:00 23,1 C 0,0 C 44 % 92 % 1012,4 hPa 0,0 l/m 0,0 km/h (0 Bft) N 0,00 h 0,0 UV-I 0 W/m -1,1 C 0,0 C 0,0 km/h (0 Bft)
06.02.2016 23:00 23,0 C -0,6 C 44 % 93 % 1011,6 hPa 0,0 l/m 0,0 km/h (0 Bft) N 0,00 h 0,0 UV-I 0 W/m -1,6 C -0,6 C 0,0 km/h (0 Bft)
07.02.2016 00:00 22,8 C -0,8 C 44 % 94 % 1010,6 hPa 0,0 l/m 0,0 km/h (0 Bft) N 0,00 h 0,0 UV-I 0 W/m -1,7 C -0,8 C 0,0 km/h (0 Bft)
07.02.2016 01:00 22,7 C -1,1 C 45 % 95 % 1010,1 hPa 0,0 l/m 0,0 km/h (0 Bft) N-NW 0,00 h 0,0 UV-I 0 W/m -1,8 C -1,1 C 0,2 km/h (0 Bft)
07.02.2016 02:00 22,6 C -1,5 C 46 % 95 % 1009,9 hPa 0,0 l/m 0,0 km/h (0 Bft) N 0,00 h 0,0 UV-I 0 W/m -2,2 C -1,5 C 0,0 km/h (0 Bft)
07.02.2016 03:00 22,6 C -1,8 C 46 % 95 % 1009,5 hPa 0,0 l/m 0,0 km/h (0 Bft) O 0,00 h 0,0 UV-I 0 W/m -2,5 C -1,8 C 0,3 km/h (0 Bft)
07.02.2016 04:00 22,6 C -1,4 C 47 % 96 % 1009,2 hPa 0,0 l/m 1,7 km/h (1 Bft) O 0,00 h 0,0 UV-I 0 W/m -2,0 C -1,4 C 4,7 km/h (1 Bft)
07.02.2016 05:00 22,5 C 0,8 C 48 % 97 % 1008,6 hPa 0,0 l/m 0,9 km/h (0 Bft) O 0,00 h 0,0 UV-I 0 W/m 0,3 C 0,8 C 3,6 km/h (1 Bft)
07.02.2016 06:00 22,5 C 1,1 C 48 % 96 % 1008,1 hPa 0,0 l/m 1,4 km/h (1 Bft) O-NO 0,00 h 0,0 UV-I 0 W/m 0,5 C 1,1 C 5,1 km/h (1 Bft)
07.02.2016 07:00 22,4 C 0,9 C 48 % 94 % 1008,2 hPa 0,0 l/m 0,4 km/h (0 Bft) O-NO 0,00 h 0,0 UV-I 8 W/m 0,1 C 0,9 C 1,8 km/h (1 Bft)
07.02.2016 08:00 22,7 C 0,6 C 49 % 94 % 1008,3 hPa 0,0 l/m 1,2 km/h (1 Bft) O-NO 0,08 h 0,0 UV-I 55 W/m -0,2 C 0,6 C 3,7 km/h (1 Bft)
07.02.2016 09:00 23,0 C 2,5 C 49 % 91 % 1007,9 hPa 0,2 l/m 3,6 km/h (1 Bft) O-NO 0,60 h 0,6 UV-I 182 W/m 1,2 C 2,4 C 8,5 km/h (2 Bft)
07.02.2016 10:00 22,7 C 2,7 C 45 % 89 % 1007,6 hPa 0,0 l/m 4,9 km/h (1 Bft) O-NO 0,95 h 0,9 UV-I 190 W/m 1,1 C 2,3 C 10,5 km/h (2 Bft)
07.02.2016 11:00 22,4 C 2,6 C 44 % 89 % 1006,8 hPa 0,0 l/m 4,9 km/h (1 Bft) O-NO 0,00 h 0,8 UV-I 140 W/m 0,9 C 1,9 C 10,6 km/h (2 Bft)
07.02.2016 12:00 22,4 C 2,8 C 44 % 88 % 1006,3 hPa 0,0 l/m 4,6 km/h (1 Bft) O-NO 0,82 h 0,9 UV-I 178 W/m 1,1 C 2,1 C 9,5 km/h (2 Bft)
07.02.2016 13:00 22,4 C 4,2 C 44 % 85 % 1005,6 hPa 0,0 l/m 5,6 km/h (1 Bft) O-NO 1,00 h 1,1 UV-I 242 W/m 1,9 C 3,2 C 10,7 km/h (2 Bft)
07.02.2016 14:00 22,6 C 5,4 C 44 % 82 % 1005,4 hPa 0,0 l/m 5,6 km/h (1 Bft) O-NO 1,00 h 1,0 UV-I 308 W/m 2,5 C 4,4 C 11,9 km/h (2 Bft)
07.02.2016 15:00 22,8 C 4,7 C 44 % 82 % 1005,4 hPa 0,0 l/m 2,5 km/h (1 Bft) O-NO 0,52 h 0,6 UV-I 142 W/m 1,9 C 4,6 C 6,5 km/h (2 Bft)
07.02.2016 16:00 22,8 C 2,9 C 43 % 87 % 1006,4 hPa 0,0 l/m 2,4 km/h (1 Bft) O-NO 0,00 h 0,0 UV-I 21 W/m 0,9 C 2,8 C 5,0 km/h (1 Bft)
07.02.2016 17:00 22,7 C 2,1 C 41 % 90 % 1007,4 hPa 0,0 l/m 1,4 km/h (1 Bft) O-NO 0,00 h 0,0 UV-I 5 W/m 0,6 C 2,1 C 3,4 km/h (1 Bft)
07.02.2016 18:00 22,8 C 2,0 C 44 % 92 % 1008,2 hPa 0,0 l/m 0,1 km/h (0 Bft) O-NO 0,00 h 0,0 UV-I 0 W/m 0,7 C 2,0 C 0,6 km/h (0 Bft)
07.02.2016 19:00 22,8 C 2,3 C 43 % 92 % 1008,8 hPa 0,0 l/m 0,0 km/h (0 Bft) N 0,00 h 0,0 UV-I 0 W/m 1,1 C 2,3 C 0,1 km/h (0 Bft)
07.02.2016 20:00 22,8 C 2,4 C 43 % 92 % 1009,8 hPa 0,0 l/m 0,0 km/h (0 Bft) N 0,00 h 0,0 UV-I 0 W/m 1,2 C 2,4 C 0,0 km/h (0 Bft)
07.02.2016 21:00 22,8 C 3,3 C 43 % 92 % 1010,6 hPa 0,0 l/m 1,3 km/h (1 Bft) W-SW 0,00 h 0,0 UV-I 0 W/m 2,2 C 3,2 C 3,2 km/h (1 Bft)
07.02.2016 22:00 22,7 C 5,2 C 43 % 85 % 1011,1 hPa 0,0 l/m 3,2 km/h (1 Bft) SW 0,00 h 0,0 UV-I 0 W/m 2,9 C 5,2 C 7,7 km/h (2 Bft)
07.02.2016 23:00 22,5 C 5,1 C 44 % 85 % 1011,4 hPa 0,0 l/m 2,5 km/h (1 Bft) SW 0,00 h 0,0 UV-I 0 W/m 2,9 C 5,1 C 7,2 km/h (2 Bft)
Min-Datum _ 06.02.16 07.02.16 05.02.16 03.02.16 07.02.16 - 01.02.16 - - - - 07.02.16 04.02.16 01.02.16
_ Min-Zeit 15:33 03:59 10:17 13:41 14:20 - 00:06 - - - - 03:59 06:33 00:10
Minimum _ 21,9 C -2,0 C 35 % 76 % 1005,2 hPa - 0,0 km/h (0 Bft) - - - - -2,7 C -8,5 C 0,0 km/h (0 Bft)
Max-Datum _ 03.02.16 01.02.16 02.02.16 01.02.16 05.02.16 03.02.16 01.02.16 - 07.02.16 06.02.16 07.02.16 01.02.16 01.02.16 01.02.16
_ Max-Zeit 19:16 16:07 19:14 01:56 10:01 18:30 16:07 - 13:12 12:02 14:03 13:32 07:53 16:07
Maximum _ 24,2 C 10,1 C 52 % 98 % 1029,3 hPa 1,0 l/m 41,8 km/h
W-SW (6 Bft)
- 0,07 h 1,3 UV-I 380 W/m 9,2 C 9,7 C 62,8 km/h
W-SW (8 Bft)
Durchschnitt _ 23,3 C 4,1 C 47 % 91 % 1018,1 hPa #7,8 l/m 5,6 km/h (1 Bft) W-SW #13:44 h 0,8 UV-I 85 W/m 2,7 C 2,6 C 9,9 km/h (2 Bft)